Saturday, August 18, 2018, 10:00 AM EDT
Back to Local

KELM, Elmira County Airport

Location: Horseheads, NY, United States Lat: 42.167
Local Time: 10:00 AM EDT (14:00 GMT) Lon: -76.9
Time Zone: US/Eastern Elev: 954 ft

Show me the last for .
Show Decoded

2018-08-18 09:39 METAR KELM 181339Z VRB05KT 10SM -RA BKN012 BKN027 OVC036 20/18 A2990 RMK AO2
                 P0005 T02000178 =
2018-08-18 09:32 METAR KELM 181332Z VRB06KT 10SM -RA FEW012 SCT025 OVC036 20/18 A2990 RMK AO2
                 P0005 T02000178 =
2018-08-18 09:09 METAR KELM 181309Z 03009G16KT 6SM -RA BR SCT011 OVC021 20/18 A2988 RMK AO2 P0003
                 T02000178 =
2018-08-18 08:53 METAR KELM 181253Z 01009KT 10SM -RA BKN011 OVC017 21/18 A2988 RMK AO2
                 RAB19E28B44 SLP112 P0000 T02060183 =
2018-08-18 07:53 METAR KELM 181153Z 00000KT 5SM BR FEW002 BKN014 OVC021 22/21 A2988 RMK AO2 RAE36
                 SLP111 P0009 60010 70015 T02170206 10222 20211 56002 =
2018-08-18 07:46 METAR KELM 181146Z 00000KT 5SM BR FEW002 BKN014 OVC021 22/21 A2988 RMK AO2 RAE36
                 P0009 T02170206 =
2018-08-18 07:25 METAR KELM 181125Z 00000KT 3SM -RA BR BKN017 BKN026 OVC032 22/21 A2988 RMK AO2
                 P0009 T02170206 =
2018-08-18 07:09 METAR KELM 181109Z 00000KT 1 3/4SM +RA BR BKN017 BKN023 OVC030 22/21 A2988 RMK
                 AO2 P0003 T02170206 =
2018-08-18 07:05 METAR KELM 181105Z 00000KT 4SM -RA BR BKN016 OVC034 22/21 A2988 RMK AO2 P0001
                 T02170206 =
2018-08-18 06:53 METAR KELM 181053Z 00000KT 7SM -RA SCT016 BKN034 OVC042 22/21 A2988 RMK AO2
                 RAE06B46 SLP111 P0000 T02170206 =
2018-08-18 05:53 METAR KELM 180953Z 00000KT 8SM -RA FEW045 BKN075 OVC095 22/21 A2987 RMK AO2
                 RAB40 SLP109 P0000 T02170206 =
2018-08-18 04:53 METAR KELM 180853Z AUTO 00000KT 7SM BKN100 BKN120 22/21 A2988 RMK AO2 SLP112
                 60001 T02170206 56004 =
2018-08-18 03:53 METAR KELM 180753Z AUTO 00000KT 7SM FEW070 BKN110 22/21 A2989 RMK AO2 RAB10E20
                 SLP113 P0000 T02170206 =
2018-08-18 02:53 METAR KELM 180653Z AUTO 22003KT 8SM OVC085 22/21 A2989 RMK AO2 RAB22E51 SLP113
                 P0001 T02220211 =
2018-08-18 01:53 METAR KELM 180553Z AUTO 00000KT 8SM FEW070 OVC110 22/21 A2990 RMK AO2 SLP115
                 T02220206 10250 20222 58009 =
2018-08-18 00:53 METAR KELM 180453Z AUTO 00000KT 9SM BKN110 23/21 A2991 RMK AO2 SLP120 T02280211
                 402890194 =
2018-08-17 23:53 METAR KELM 180353Z AUTO 00000KT 10SM BKN110 23/21 A2992 RMK AO2 SLP124 T02280211
                 =
2018-08-17 22:53 METAR KELM 180253Z 00000KT 10SM SCT035 23/21 A2992 RMK AO2 SLP125 T02280211
                 50007 =
2018-08-17 21:53 METAR KELM 180153Z 00000KT 10SM FEW060 BKN075 BKN090 23/21 A2993 RMK AO2 SLP128
                 T02330211 =
2018-08-17 20:53 METAR KELM 180053Z 27004KT 10SM CLR 23/21 A2992 RMK AO2 SLP126 T02330211 =
2018-08-17 19:53 METAR KELM 172353Z 23008KT 10SM CLR 25/21 A2990 RMK AO2 SLP119 60005 T02500211
                 10289 20250 53003 =
2018-08-17 18:53 METAR KELM 172253Z 21005KT 10SM FEW038 FEW046 26/22 A2989 RMK AO2 LTG DSNT E
                 RAE2158 SLP115 P0000 T02560222 =
2018-08-17 18:01 METAR KELM 172201Z 25008KT 10SM SCT040 BKN048 OVC095 28/22 A2989 RMK AO2 LTG
                 DSNT NE-SE RAE2158 P0000 T02780222 =
2018-08-17 17:53 METAR KELM 172153Z 22008G23KT 2 1/2SM R24/2800VP6000FT -RA SCT037 BKN045 27/22
                 A2989 RMK AO2 LTG DSNT ALQDS RAB47 TSB16E31 SLP115 P0005 T02670217 =
2018-08-17 17:47 METAR KELM 172147Z 20016G23KT 2 1/2SM RA BKN039 BKN048 BKN065 27/22 A2989 RMK
                 AO2 LTG DSNT ALQDS RAB47 TSB16E31 P0005 =
2018-08-17 17:37 METAR KELM 172137Z 25010KT 10SM VCTS BKN044 BKN090 28/21 A2990 RMK AO2 LTG DSNT
                 N AND SE AND S TSB16E31 T02830206 =
2018-08-17 17:16 METAR KELM 172116Z 22008KT 10SM TS BKN090 29/22 A2989 RMK AO2 LTG DSNT N AND SE
                 AND S TSB16 T02890222 =
2018-08-17 16:53 METAR KELM 172053Z 22011KT 10SM OVC080 28/22 A2989 RMK AO2 LTG DSNT N AND SW
                 SLP115 T02830217 58014 =
2018-08-17 15:53 METAR KELM 171953Z 23007KT 10SM FEW033 OVC070 28/21 A2992 RMK AO2 SLP123
                 T02830211 =
2018-08-17 14:53 METAR KELM 171853Z 24013KT 10SM FEW036 BKN050 28/21 A2993 RMK AO2 SLP129
                 T02830206 =
2018-08-17 13:53 METAR KELM 171753Z 24011KT 10SM BKN033 BKN042 29/22 A2993 RMK AO2 SLP129 60000
                 T02890217 10289 20211 58022 =
2018-08-17 12:53 METAR KELM 171653Z 24011G18KT 10SM BKN032 28/21 A2996 RMK AO2 SLP139 T02780206 =
2018-08-17 11:53 METAR KELM 171553Z 24013G21KT 10SM FEW110 27/20 A2998 RMK AO2 SLP145 T02720200 =
2018-08-17 10:53 METAR KELM 171453Z 23009KT 10SM SCT028 27/21 A3000 RMK AO2 SLP152 60000
                 T02670211 58016 =

Support USWX by starting your Amazon purchase here.